createdAt,value
2023-05-20T00:01:52.989Z,74.44
2023-05-20T00:04:19.678Z,74.97
2023-05-20T00:06:46.424Z,75.06
2023-05-20T00:09:13.163Z,75.09
2023-05-20T00:11:39.924Z,74.84
2023-05-20T00:14:06.638Z,74.93
2023-05-20T00:16:33.380Z,75.00
2023-05-20T00:19:00.312Z,75.32
2023-05-20T00:21:27.001Z,74.66
2023-05-20T00:23:53.756Z,74.82
2023-05-20T00:26:21.430Z,74.61
2023-05-20T00:28:53.727Z,74.73
2023-05-20T00:31:20.485Z,74.58
2023-05-20T00:33:47.225Z,75.44
2023-05-20T00:36:14.088Z,75.41
2023-05-20T00:38:40.863Z,75.35
2023-05-20T00:41:07.691Z,75.74
2023-05-20T00:43:34.357Z,75.10
2023-05-20T00:46:01.874Z,74.93
2023-05-20T00:48:39.938Z,75.53
2023-05-20T00:51:07.721Z,75.67
2023-05-20T00:53:35.471Z,75.03
2023-05-20T00:56:03.848Z,75.27
2023-05-20T00:58:31.518Z,75.04
2023-05-20T01:00:58.501Z,75.59
2023-05-20T01:03:25.648Z,75.31
2023-05-20T01:05:52.592Z,75.07
2023-05-20T01:08:19.362Z,75.85
2023-05-20T01:10:47.605Z,75.45
2023-05-20T01:13:20.050Z,75.43
2023-05-20T01:15:49.052Z,75.17
2023-05-20T01:18:18.323Z,75.27
2023-05-20T01:20:49.682Z,75.63
2023-05-20T01:23:17.178Z,75.97
2023-05-20T01:25:43.924Z,76.38
2023-05-20T01:28:17.648Z,76.08
2023-05-20T01:30:51.103Z,76.28
2023-05-20T01:33:21.940Z,76.62
2023-05-20T01:35:48.939Z,76.54
2023-05-20T01:38:19.564Z,76.57
2023-05-20T01:40:47.848Z,76.47
2023-05-20T01:43:17.406Z,76.78
2023-05-20T01:45:45.126Z,76.94
2023-05-20T01:48:12.391Z,76.81
2023-05-20T01:50:39.655Z,76.69
2023-05-20T01:53:09.524Z,76.31
2023-05-20T01:55:36.427Z,76.18
2023-05-20T01:58:03.523Z,76.71
2023-05-20T02:00:32.105Z,77.05
2023-05-20T02:02:59.570Z,77.36
2023-05-20T02:05:26.317Z,77.30
2023-05-20T02:07:52.989Z,76.99
2023-05-20T02:10:20.756Z,77.36
2023-05-20T02:12:49.288Z,77.36
2023-05-20T02:15:16.357Z,77.66
2023-05-20T02:17:43.764Z,77.36
2023-05-20T02:20:11.759Z,77.73
2023-05-20T02:22:38.494Z,77.24
2023-05-20T02:25:05.788Z,77.23
2023-05-20T02:27:32.534Z,77.61
2023-05-20T02:30:00.291Z,77.99
2023-05-20T02:32:28.837Z,77.74
2023-05-20T02:34:55.995Z,77.73
2023-05-20T02:37:22.717Z,77.67
2023-05-20T02:39:49.571Z,77.69
2023-05-20T02:42:16.332Z,77.62
2023-05-20T02:44:43.438Z,77.69
2023-05-20T02:47:10.655Z,77.46
2023-05-20T02:49:37.360Z,77.67
2023-05-20T02:52:04.408Z,78.13
2023-05-20T02:54:31.144Z,78.34
2023-05-20T02:56:58.162Z,78.64
2023-05-20T02:59:24.823Z,78.94
2023-05-20T03:01:51.842Z,79.29
2023-05-20T03:04:19.329Z,79.09
2023-05-20T03:06:46.587Z,78.96
2023-05-20T03:09:15.540Z,79.05
2023-05-20T03:11:42.250Z,79.20
2023-05-20T03:14:09.434Z,79.65
2023-05-20T03:16:36.199Z,79.98
2023-05-20T03:19:02.959Z,80.35
2023-05-20T03:21:29.713Z,80.46
2023-05-20T03:23:56.474Z,80.67
2023-05-20T03:26:23.334Z,80.65
2023-05-20T03:28:50.728Z,80.59
2023-05-20T03:31:17.730Z,80.49
2023-05-20T03:33:46.131Z,80.33
2023-05-20T03:36:12.961Z,80.45
2023-05-20T03:38:39.772Z,80.33
2023-05-20T03:41:06.556Z,80.35
2023-05-20T03:43:33.741Z,80.18
2023-05-20T03:46:00.995Z,80.30
2023-05-20T03:48:28.727Z,79.92
2023-05-20T03:50:55.513Z,79.77
2023-05-20T03:53:22.574Z,79.30
2023-05-20T03:55:49.306Z,79.53
2023-05-20T03:58:16.642Z,79.11
2023-05-20T04:00:43.746Z,79.30
2023-05-20T04:03:10.667Z,79.20
2023-05-20T04:05:37.507Z,78.99
2023-05-20T04:08:09.944Z,79.06
2023-05-20T04:10:36.946Z,79.08
2023-05-20T04:13:04.294Z,79.27
2023-05-20T04:15:30.988Z,79.35
2023-05-20T04:17:58.974Z,79.22
2023-05-20T04:20:25.730Z,79.34
2023-05-20T04:22:55.372Z,79.25
2023-05-20T04:25:22.455Z,78.88
2023-05-20T04:27:49.838Z,78.87
2023-05-20T04:30:19.935Z,79.16
2023-05-20T04:32:48.386Z,79.09
2023-05-20T04:35:15.106Z,78.96
2023-05-20T04:37:47.663Z,79.13
2023-05-20T04:40:14.670Z,78.93
2023-05-20T04:42:43.489Z,78.97
2023-05-20T04:45:11.061Z,79.09
2023-05-20T04:47:39.318Z,78.71
2023-05-20T04:50:10.844Z,78.43
2023-05-20T04:52:45.990Z,78.29
2023-05-20T04:55:13.613Z,78.09
2023-05-20T04:57:42.009Z,77.60
2023-05-20T05:00:10.810Z,77.82
2023-05-20T05:02:38.225Z,77.13
2023-05-20T05:05:05.762Z,77.04
2023-05-20T05:07:32.544Z,77.30
2023-05-20T05:09:59.354Z,77.09
2023-05-20T05:12:27.992Z,76.47
2023-05-20T05:14:54.680Z,76.97
2023-05-20T05:17:22.622Z,77.21
2023-05-20T05:19:49.502Z,77.29
2023-05-20T05:22:16.459Z,76.74
2023-05-20T05:24:43.313Z,76.77
2023-05-20T05:27:09.984Z,76.33
2023-05-20T05:29:36.674Z,76.66
2023-05-20T05:32:03.879Z,76.40
2023-05-20T05:34:30.702Z,75.73
2023-05-20T05:36:57.539Z,76.15
2023-05-20T05:39:24.569Z,76.05
2023-05-20T05:41:54.125Z,76.13
2023-05-20T05:44:21.080Z,75.87
2023-05-20T05:46:48.438Z,76.09
2023-05-20T05:49:15.211Z,75.73
2023-05-20T05:51:41.887Z,75.07
2023-05-20T05:54:08.659Z,75.63
2023-05-20T05:56:35.260Z,75.92
2023-05-20T05:59:02.068Z,75.96
2023-05-20T06:01:30.026Z,75.88
2023-05-20T06:03:56.766Z,75.39
2023-05-20T06:06:23.502Z,75.12
2023-05-20T06:08:50.174Z,75.10
2023-05-20T06:11:16.807Z,75.01
2023-05-20T06:13:43.482Z,73.73
2023-05-20T06:16:10.262Z,73.88
2023-05-20T06:18:38.213Z,73.58
2023-05-20T06:21:06.165Z,74.29
2023-05-20T06:23:33.122Z,72.32
2023-05-20T06:26:03.702Z,72.81
2023-05-20T06:28:30.882Z,72.54
2023-05-20T06:30:57.686Z,72.41
2023-05-20T06:33:27.574Z,72.54
2023-05-20T06:35:58.691Z,72.13
2023-05-20T06:38:25.504Z,71.72
2023-05-20T06:40:52.233Z,72.06
2023-05-20T06:43:19.235Z,72.71
2023-05-20T06:46:24.239Z,71.57
2023-05-20T06:48:55.511Z,71.21
2023-05-20T06:51:22.383Z,71.89
2023-05-20T06:53:50.039Z,71.09
2023-05-20T06:56:16.798Z,71.41
2023-05-20T06:58:43.959Z,70.60
2023-05-20T07:01:11.003Z,70.48
2023-05-20T07:03:38.443Z,69.92
2023-05-20T07:06:05.691Z,70.65
2023-05-20T07:08:32.410Z,69.48
2023-05-20T07:10:59.373Z,69.84
2023-05-20T07:13:26.210Z,69.68
2023-05-20T07:15:53.331Z,69.54
2023-05-20T07:18:20.252Z,69.82
2023-05-20T07:20:52.119Z,70.22
2023-05-20T07:23:37.489Z,69.83
2023-05-20T07:26:04.340Z,69.42
2023-05-20T07:28:31.420Z,70.45
2023-05-20T07:31:00.246Z,69.21
2023-05-20T07:33:29.927Z,68.83
2023-05-20T07:35:57.022Z,69.43
2023-05-20T07:38:24.133Z,68.61
2023-05-20T07:40:56.729Z,68.52
2023-05-20T07:43:24.123Z,68.06
2023-05-20T07:45:50.911Z,67.99
2023-05-20T07:48:17.649Z,68.50
2023-05-20T07:50:44.575Z,68.35
2023-05-20T07:53:12.067Z,68.72
2023-05-20T07:55:39.590Z,66.61
2023-05-20T07:58:06.853Z,66.58
2023-05-20T08:00:35.831Z,65.91
2023-05-20T08:03:07.935Z,65.48
2023-05-20T08:06:01.203Z,65.27
2023-05-20T08:08:30.519Z,65.96
2023-05-20T08:11:04.079Z,66.32
2023-05-20T08:13:31.775Z,65.77
2023-05-20T08:15:59.742Z,63.93
2023-05-20T08:18:27.905Z,63.59
2023-05-20T08:20:54.610Z,62.74
2023-05-20T08:23:21.628Z,63.49
2023-05-20T08:25:49.277Z,62.96
2023-05-20T08:28:18.251Z,62.84
2023-05-20T08:30:45.392Z,62.35
2023-05-20T08:33:13.140Z,62.58
2023-05-20T08:35:40.747Z,62.91
2023-05-20T08:38:08.723Z,62.99
2023-05-20T08:40:35.678Z,63.38
2023-05-20T08:43:02.913Z,63.51
2023-05-20T08:45:32.990Z,64.49
2023-05-20T08:48:05.491Z,64.55
2023-05-20T08:50:32.640Z,64.90
2023-05-20T08:52:59.908Z,64.69
2023-05-20T08:55:55.524Z,61.74
2023-05-20T08:58:23.312Z,62.30
2023-05-20T09:00:51.283Z,60.53
2023-05-20T09:03:18.671Z,57.33
2023-05-20T09:05:45.280Z,57.91
2023-05-20T09:08:12.760Z,57.77
2023-05-20T09:10:41.675Z,56.82
2023-05-20T09:13:10.790Z,56.00
2023-05-20T09:15:37.878Z,56.40
2023-05-20T09:18:08.828Z,55.84
2023-05-20T09:20:41.148Z,56.00
2023-05-20T09:23:09.832Z,53.61
2023-05-20T09:25:37.859Z,53.57
2023-05-20T09:28:08.757Z,51.87
2023-05-20T09:30:35.696Z,51.47
2023-05-20T09:33:05.282Z,47.96
2023-05-20T09:35:37.696Z,46.16
2023-05-20T09:38:09.412Z,43.92
2023-05-20T09:40:40.385Z,42.70
2023-05-20T09:43:08.021Z,44.23
2023-05-20T09:45:35.253Z,45.81
2023-05-20T09:48:03.182Z,46.00
2023-05-20T09:50:31.653Z,49.01
2023-05-20T09:53:03.335Z,48.78
2023-05-20T09:55:31.006Z,50.59
2023-05-20T09:58:02.077Z,47.47
2023-05-20T10:00:28.950Z,45.94
2023-05-20T10:02:56.355Z,40.30
2023-05-20T10:05:27.696Z,39.79
2023-05-20T10:08:23.382Z,39.71
2023-05-20T10:11:20.197Z,39.20
2023-05-20T10:14:22.190Z,37.83
2023-05-20T10:17:07.914Z,37.99
2023-05-20T10:19:34.888Z,38.51
2023-05-20T10:22:04.478Z,37.83
2023-05-20T10:24:32.511Z,36.46
2023-05-20T10:27:01.431Z,35.00
2023-05-20T10:29:28.501Z,36.47
2023-05-20T10:31:55.799Z,37.50
2023-05-20T10:34:23.255Z,34.96
2023-05-20T10:36:56.781Z,35.40
2023-05-20T10:39:28.687Z,35.96
2023-05-20T10:42:11.557Z,36.64
2023-05-20T10:44:45.719Z,35.47
2023-05-20T10:49:47.358Z,34.76
2023-05-20T10:52:14.806Z,35.44
2023-05-20T10:54:56.217Z,34.60
2023-05-20T10:57:24.758Z,34.85
2023-05-20T10:59:51.691Z,34.23
2023-05-20T11:02:26.470Z,35.18
2023-05-20T11:04:53.559Z,36.31
2023-05-20T11:07:30.517Z,34.43
2023-05-20T11:09:58.714Z,33.47
2023-05-20T11:12:26.476Z,34.08
2023-05-20T11:14:53.703Z,34.64
2023-05-20T11:17:20.796Z,34.94
2023-05-20T11:19:48.421Z,34.20
2023-05-20T11:22:15.323Z,35.86
2023-05-20T11:24:42.045Z,35.44
2023-05-20T11:27:09.303Z,35.52
2023-05-20T11:29:36.163Z,36.14
2023-05-20T11:32:03.048Z,35.94
2023-05-20T11:34:37.429Z,37.04
2023-05-20T11:37:09.005Z,35.90
2023-05-20T11:39:37.654Z,36.28
2023-05-20T11:42:06.140Z,36.35
2023-05-20T11:44:32.936Z,35.34
2023-05-20T11:47:01.577Z,34.72
2023-05-20T11:49:30.659Z,34.47
2023-05-20T11:51:57.673Z,35.17
2023-05-20T11:54:24.861Z,35.42
2023-05-20T11:56:54.366Z,34.03
2023-05-20T11:59:24.309Z,35.28
2023-05-20T12:01:51.051Z,32.70
2023-05-20T12:04:18.543Z,32.84
2023-05-20T12:06:45.796Z,32.87
2023-05-20T12:09:14.144Z,32.51
2023-05-20T12:11:41.934Z,32.59
2023-05-20T12:14:09.082Z,33.79
2023-05-20T12:16:36.793Z,34.25
2023-05-20T12:19:03.948Z,34.12
2023-05-20T12:21:31.420Z,33.08
2023-05-20T12:24:01.134Z,34.55
2023-05-20T12:26:29.037Z,33.31
2023-05-20T12:28:56.325Z,32.85
2023-05-20T12:31:23.373Z,34.45
2023-05-20T12:33:50.183Z,33.71
2023-05-20T12:36:17.038Z,34.91
2023-05-20T12:38:43.716Z,32.85
2023-05-20T12:41:10.679Z,32.61
2023-05-20T12:43:37.829Z,32.02
2023-05-20T12:46:05.180Z,33.75
2023-05-20T12:48:32.042Z,33.84
2023-05-20T12:50:58.698Z,32.41
2023-05-20T12:53:25.512Z,32.25
2023-05-20T12:55:52.416Z,34.54
2023-05-20T12:58:19.202Z,35.80
2023-05-20T13:00:46.053Z,38.42
2023-05-20T13:03:12.767Z,41.23
2023-05-20T13:05:39.475Z,42.75
2023-05-20T13:08:06.333Z,44.82
2023-05-20T13:10:33.415Z,46.43
2023-05-20T13:13:00.333Z,44.18
2023-05-20T13:15:27.042Z,42.67
2023-05-20T13:17:54.435Z,40.12
2023-05-20T13:20:21.538Z,38.02
2023-05-20T13:22:50.115Z,36.39
2023-05-20T13:25:16.978Z,35.13
2023-05-20T13:27:43.869Z,34.08
2023-05-20T13:30:10.933Z,34.43
2023-05-20T13:32:37.945Z,34.47
2023-05-20T13:35:05.185Z,34.55
2023-05-20T13:37:31.962Z,34.15
2023-05-20T13:39:59.242Z,33.79
2023-05-20T13:42:26.019Z,32.75
2023-05-20T13:44:52.758Z,33.29
2023-05-20T13:47:19.474Z,33.22
2023-05-20T13:49:46.311Z,33.69
2023-05-20T13:52:13.351Z,35.46
2023-05-20T13:54:40.542Z,36.86
2023-05-20T13:57:08.037Z,37.47
2023-05-20T13:59:35.225Z,38.50
2023-05-20T14:02:02.747Z,39.33
2023-05-20T14:04:31.278Z,40.85
2023-05-20T14:06:59.285Z,43.03
2023-05-20T14:09:26.359Z,43.39
2023-05-20T14:11:53.372Z,43.12
2023-05-20T14:14:19.996Z,42.97
2023-05-20T14:16:48.204Z,42.84
2023-05-20T14:19:14.933Z,41.71
2023-05-20T14:21:41.682Z,42.39
2023-05-20T14:24:08.355Z,42.72
2023-05-20T14:26:35.693Z,43.32
2023-05-20T14:29:02.545Z,44.36
2023-05-20T14:31:29.247Z,45.52
2023-05-20T14:33:55.914Z,46.53
2023-05-20T14:36:22.619Z,47.00
2023-05-20T14:38:49.787Z,46.95
2023-05-20T14:41:16.600Z,46.44
2023-05-20T14:43:43.400Z,47.09
2023-05-20T14:46:10.577Z,48.10
2023-05-20T14:48:37.502Z,47.96
2023-05-20T14:51:04.250Z,47.18
2023-05-20T14:53:31.008Z,47.65
2023-05-20T14:55:57.813Z,47.79
2023-05-20T14:58:25.366Z,47.48
2023-05-20T15:00:55.243Z,48.82
2023-05-20T15:03:24.101Z,48.67
2023-05-20T15:05:50.957Z,50.11
2023-05-20T15:08:18.370Z,49.67
2023-05-20T15:10:45.401Z,50.36
2023-05-20T15:13:12.137Z,50.18
2023-05-20T15:15:38.858Z,50.15
2023-05-20T15:18:05.915Z,50.59
2023-05-20T15:20:32.550Z,50.20
2023-05-20T15:23:00.861Z,50.57
2023-05-20T15:25:27.719Z,50.72
2023-05-20T15:27:54.366Z,51.39
2023-05-20T15:30:22.813Z,52.13
2023-05-20T15:32:50.339Z,52.46
2023-05-20T15:35:17.171Z,52.55
2023-05-20T15:37:47.233Z,52.36
2023-05-20T15:40:14.732Z,52.50
2023-05-20T15:42:42.771Z,52.57
2023-05-20T15:45:13.887Z,52.59
2023-05-20T15:47:43.221Z,53.00
2023-05-20T15:50:11.284Z,52.55
2023-05-20T15:52:38.592Z,52.75
2023-05-20T15:55:05.904Z,52.56
2023-05-20T15:57:32.569Z,53.06
2023-05-20T15:59:59.420Z,52.89
2023-05-20T16:02:26.665Z,53.82
2023-05-20T16:04:54.440Z,53.20
2023-05-20T16:07:21.272Z,53.60
2023-05-20T16:09:47.946Z,54.17
2023-05-20T16:12:16.818Z,54.57
2023-05-20T16:14:44.838Z,53.99
2023-05-20T16:17:12.740Z,53.94
2023-05-20T16:19:39.427Z,53.60
2023-05-20T16:22:06.148Z,54.08
2023-05-20T16:24:32.833Z,52.98
2023-05-20T16:27:00.945Z,53.04
2023-05-20T16:29:29.159Z,52.77
2023-05-20T16:31:56.796Z,52.67
2023-05-20T16:34:25.371Z,52.85
2023-05-20T16:36:53.196Z,52.68
2023-05-20T16:39:21.768Z,53.10
2023-05-20T16:41:49.659Z,52.77
2023-05-20T16:44:17.855Z,53.92
2023-05-20T16:46:46.793Z,54.26
2023-05-20T16:49:15.002Z,54.41
2023-05-20T16:51:43.197Z,54.91
2023-05-20T16:54:10.978Z,55.51
2023-05-20T16:56:38.754Z,55.80
2023-05-20T16:59:08.706Z,54.97
2023-05-20T17:01:36.809Z,54.42
2023-05-20T17:04:03.933Z,54.15
2023-05-20T17:06:34.000Z,54.99
2023-05-20T17:09:03.893Z,54.76
2023-05-20T17:11:30.831Z,54.95
2023-05-20T17:13:57.596Z,54.89
2023-05-20T17:16:24.527Z,55.40
2023-05-20T17:18:51.445Z,55.02
2023-05-20T17:21:20.888Z,55.78
2023-05-20T17:23:47.667Z,55.68
2023-05-20T17:26:15.071Z,55.22
2023-05-20T17:28:42.300Z,55.47
2023-05-20T17:31:09.759Z,55.62
2023-05-20T17:33:36.675Z,55.71
2023-05-20T17:36:03.498Z,55.66
2023-05-20T17:38:30.329Z,55.97
2023-05-20T17:40:57.881Z,56.36
2023-05-20T17:43:25.630Z,57.09
2023-05-20T17:45:52.353Z,57.46
2023-05-20T17:48:19.145Z,58.03
2023-05-20T17:50:45.870Z,58.13
2023-05-20T17:53:12.519Z,58.22
2023-05-20T17:55:39.755Z,58.51
2023-05-20T17:58:10.137Z,58.98
2023-05-20T18:00:42.178Z,59.60
2023-05-20T18:03:10.198Z,59.54
2023-05-20T18:05:37.064Z,59.84
2023-05-20T18:08:03.883Z,60.26
2023-05-20T18:10:30.656Z,60.81
2023-05-20T18:12:57.348Z,61.00
2023-05-20T18:15:24.036Z,61.02
2023-05-20T18:17:51.159Z,61.49
2023-05-20T18:20:18.050Z,61.61
2023-05-20T18:22:47.530Z,61.67
2023-05-20T18:25:14.981Z,61.84
2023-05-20T18:27:42.380Z,62.38
2023-05-20T18:30:10.078Z,62.65
2023-05-20T18:32:37.088Z,63.06
2023-05-20T18:35:03.917Z,63.07
2023-05-20T18:37:30.796Z,62.87
2023-05-20T18:39:58.808Z,63.33
2023-05-20T18:42:25.970Z,63.59
2023-05-20T18:44:53.132Z,63.74
2023-05-20T18:47:19.911Z,63.82
2023-05-20T18:49:46.652Z,64.22
2023-05-20T18:52:13.406Z,63.98
2023-05-20T18:54:40.325Z,64.48
2023-05-20T18:57:08.133Z,64.99
2023-05-20T18:59:34.913Z,65.00
2023-05-20T19:02:01.740Z,65.38
2023-05-20T19:04:28.440Z,65.54
2023-05-20T19:06:55.191Z,65.67
2023-05-20T19:09:21.908Z,65.70
2023-05-20T19:11:48.642Z,65.65
2023-05-20T19:14:15.502Z,65.91
2023-05-20T19:16:42.242Z,65.97
2023-05-20T19:19:09.065Z,66.37
2023-05-20T19:21:36.034Z,66.43
2023-05-20T19:24:02.666Z,66.64
2023-05-20T19:26:29.821Z,67.23
2023-05-20T19:28:56.721Z,67.13
2023-05-20T19:31:23.632Z,67.38
2023-05-20T19:33:51.662Z,67.34
2023-05-20T19:36:18.622Z,67.67
2023-05-20T19:38:45.397Z,68.01
2023-05-20T19:41:13.034Z,68.37
2023-05-20T19:43:40.599Z,68.39
2023-05-20T19:46:07.448Z,68.73
2023-05-20T19:48:34.216Z,68.88
2023-05-20T19:51:01.591Z,69.02
2023-05-20T19:53:28.320Z,69.45
2023-05-20T19:55:55.077Z,69.49
2023-05-20T19:58:22.484Z,69.50
2023-05-20T20:00:49.084Z,69.89
2023-05-20T20:03:15.960Z,69.55
2023-05-20T20:05:42.702Z,69.89
2023-05-20T20:08:09.501Z,70.01
2023-05-20T20:10:37.619Z,69.95
2023-05-20T20:13:04.721Z,70.27
2023-05-20T20:15:32.053Z,70.13
2023-05-20T20:17:59.351Z,70.40
2023-05-20T20:20:29.617Z,70.40
2023-05-20T20:22:57.562Z,70.59
2023-05-20T20:25:26.677Z,70.87
2023-05-20T20:27:53.302Z,71.05
2023-05-20T20:30:21.481Z,71.17
2023-05-20T20:32:48.394Z,71.54
2023-05-20T20:35:15.939Z,71.68
2023-05-20T20:37:44.662Z,71.93
2023-05-20T20:40:13.648Z,72.06
2023-05-20T20:42:42.003Z,71.77
2023-05-20T20:45:09.197Z,72.49
2023-05-20T20:47:38.610Z,72.27
2023-05-20T20:50:06.455Z,72.25
2023-05-20T20:52:33.406Z,71.94
2023-05-20T20:55:00.412Z,72.35
2023-05-20T20:57:27.065Z,72.85
2023-05-20T20:59:57.724Z,72.96
2023-05-20T21:02:24.949Z,72.98
2023-05-20T21:04:51.645Z,72.89
2023-05-20T21:07:18.499Z,73.25
2023-05-20T21:09:45.751Z,73.35
2023-05-20T21:12:13.036Z,73.87
2023-05-20T21:14:39.671Z,74.03
2023-05-20T21:17:06.421Z,73.85
2023-05-20T21:19:33.201Z,73.95
2023-05-20T21:21:59.934Z,74.11
2023-05-20T21:24:26.600Z,74.65
2023-05-20T21:26:53.271Z,74.83
2023-05-20T21:29:19.879Z,74.98
2023-05-20T21:31:46.552Z,75.32
2023-05-20T21:34:13.898Z,75.43
2023-05-20T21:36:40.558Z,75.57
2023-05-20T21:39:07.245Z,75.64
2023-05-20T21:41:33.933Z,75.99
2023-05-20T21:44:00.584Z,76.04
2023-05-20T21:46:27.368Z,76.19
2023-05-20T21:48:54.308Z,76.08
2023-05-20T21:51:20.972Z,76.41
2023-05-20T21:53:47.752Z,76.26
2023-05-20T21:56:14.606Z,76.50
2023-05-20T21:58:41.849Z,76.65
2023-05-20T22:01:09.977Z,76.87
2023-05-20T22:03:37.196Z,77.06
2023-05-20T22:06:05.036Z,77.01
2023-05-20T22:08:33.833Z,77.35
2023-05-20T22:11:05.370Z,77.64
2023-05-20T22:13:33.737Z,77.54
2023-05-20T22:16:01.956Z,77.64
2023-05-20T22:18:29.346Z,77.43
2023-05-20T22:20:56.336Z,77.44
2023-05-20T22:23:22.943Z,77.31
2023-05-20T22:25:49.593Z,77.36
2023-05-20T22:28:16.831Z,77.58
2023-05-20T22:30:43.929Z,77.79
2023-05-20T22:33:11.918Z,77.74
2023-05-20T22:35:38.925Z,78.07
2023-05-20T22:38:06.473Z,78.17
2023-05-20T22:40:33.708Z,78.20
2023-05-20T22:43:00.432Z,78.55
2023-05-20T22:45:27.317Z,78.84
2023-05-20T22:47:54.330Z,78.80
2023-05-20T22:50:21.153Z,78.76
2023-05-20T22:52:47.999Z,78.80
2023-05-20T22:55:14.834Z,79.20
2023-05-20T22:57:41.460Z,79.37
2023-05-20T23:00:09.925Z,79.40
2023-05-20T23:02:36.629Z,79.82
2023-05-20T23:05:04.198Z,79.71
2023-05-20T23:07:31.278Z,79.56
2023-05-20T23:09:57.916Z,79.89
2023-05-20T23:12:24.545Z,79.79
2023-05-20T23:14:51.666Z,79.86
2023-05-20T23:17:18.357Z,79.96
2023-05-20T23:19:45.012Z,79.76
2023-05-20T23:22:11.908Z,79.30
2023-05-20T23:24:38.566Z,79.30
2023-05-20T23:27:06.265Z,79.31
2023-05-20T23:29:32.933Z,79.72
2023-05-20T23:31:59.590Z,79.44
2023-05-20T23:34:27.290Z,79.75
2023-05-20T23:36:54.088Z,79.84
2023-05-20T23:39:20.983Z,79.84
2023-05-20T23:41:47.672Z,80.22
2023-05-20T23:44:14.435Z,80.32
2023-05-20T23:46:41.811Z,80.49
2023-05-20T23:49:10.008Z,80.51
2023-05-20T23:51:36.726Z,80.54
2023-05-20T23:54:03.438Z,80.48
2023-05-20T23:56:30.227Z,80.83
2023-05-20T23:58:57.848Z,80.82
